createdAt,value
2017-09-05T00:00:33.263Z,16.60
2017-09-05T00:03:00.714Z,16.57
2017-09-05T00:05:28.191Z,16.32
2017-09-05T00:08:13.316Z,16.14
2017-09-05T00:10:40.783Z,16.19
2017-09-05T00:13:08.650Z,16.09
2017-09-05T00:15:38.655Z,16.18
2017-09-05T00:18:16.959Z,16.29
2017-09-05T00:20:46.835Z,16.19
2017-09-05T00:23:14.289Z,16.39
2017-09-05T00:25:41.753Z,16.53
2017-09-05T00:28:09.209Z,16.42
2017-09-05T00:30:36.683Z,16.44
2017-09-05T00:33:04.131Z,16.57
2017-09-05T00:35:31.669Z,16.59
2017-09-05T00:37:59.213Z,16.67
2017-09-05T00:40:26.674Z,16.67
2017-09-05T00:42:54.130Z,16.56
2017-09-05T00:45:21.619Z,16.42
2017-09-05T00:47:49.042Z,16.36
2017-09-05T00:50:16.549Z,16.24
2017-09-05T00:52:44.014Z,15.93
2017-09-05T00:55:11.531Z,15.83
2017-09-05T00:57:39.030Z,15.90
2017-09-05T01:00:06.537Z,15.99
2017-09-05T01:02:34.078Z,15.93
2017-09-05T01:05:01.552Z,15.83
2017-09-05T01:07:29.098Z,16.02
2017-09-05T01:09:56.567Z,16.25
2017-09-05T01:12:24.127Z,16.32
2017-09-05T01:14:51.579Z,16.40
2017-09-05T01:17:19.129Z,16.35
2017-09-05T01:19:46.621Z,16.44
2017-09-05T01:22:14.077Z,16.49
2017-09-05T01:24:41.511Z,16.51
2017-09-05T01:27:09.062Z,16.37
2017-09-05T01:29:36.493Z,16.47
2017-09-05T01:32:04.017Z,16.54
2017-09-05T01:34:31.492Z,16.52
2017-09-05T01:36:58.985Z,16.54
2017-09-05T01:39:26.430Z,16.51
2017-09-05T01:41:54.098Z,16.53
2017-09-05T01:44:21.570Z,16.51
2017-09-05T01:46:49.114Z,16.54
2017-09-05T01:49:16.558Z,16.47
2017-09-05T01:51:44.025Z,16.40
2017-09-05T01:54:11.493Z,16.41
2017-09-05T01:56:38.989Z,16.30
2017-09-05T01:59:06.518Z,16.27
2017-09-05T02:01:34.063Z,16.31
2017-09-05T02:04:01.512Z,16.34
2017-09-05T02:06:28.987Z,16.23
2017-09-05T02:08:56.527Z,16.36
2017-09-05T02:11:24.017Z,16.19
2017-09-05T02:13:51.462Z,16.26
2017-09-05T02:16:18.950Z,16.15
2017-09-05T02:18:46.385Z,16.40
2017-09-05T02:21:13.881Z,16.42
2017-09-05T02:23:41.348Z,16.38
2017-09-05T02:26:08.794Z,16.40
2017-09-05T02:28:36.256Z,16.37
2017-09-05T02:31:03.811Z,16.42
2017-09-05T02:33:31.290Z,16.40
2017-09-05T02:35:58.758Z,16.52
2017-09-05T02:38:26.333Z,16.62
2017-09-05T02:40:53.874Z,16.41
2017-09-05T02:43:21.433Z,16.34
2017-09-05T02:45:48.877Z,16.33
2017-09-05T02:48:16.352Z,16.40
2017-09-05T02:50:43.814Z,16.32
2017-09-05T02:53:11.377Z,16.21
2017-09-05T02:55:38.844Z,16.37
2017-09-05T02:58:06.377Z,16.26
2017-09-05T03:00:33.813Z,16.16
2017-09-05T03:03:01.330Z,16.07
2017-09-05T03:05:28.769Z,16.04
2017-09-05T03:07:56.221Z,16.13
2017-09-05T03:10:23.747Z,15.94
2017-09-05T03:12:51.213Z,16.00
2017-09-05T03:15:18.653Z,16.08
2017-09-05T03:17:46.121Z,16.03
2017-09-05T03:20:13.557Z,15.95
2017-09-05T03:22:41.004Z,16.00
2017-09-05T03:25:08.585Z,16.02
2017-09-05T03:27:36.024Z,16.18
2017-09-05T03:30:03.527Z,16.07
2017-09-05T03:32:30.962Z,15.89
2017-09-05T03:34:58.445Z,15.91
2017-09-05T03:37:25.890Z,15.89
2017-09-05T03:39:53.447Z,15.55
2017-09-05T03:42:20.905Z,15.59
2017-09-05T03:44:48.368Z,15.72
2017-09-05T03:47:15.801Z,15.64
2017-09-05T03:49:43.481Z,15.48
2017-09-05T03:52:10.963Z,15.43
2017-09-05T03:54:38.443Z,15.42
2017-09-05T03:57:05.887Z,15.41
2017-09-05T03:59:33.407Z,15.33
2017-09-05T04:02:00.900Z,15.28
2017-09-05T04:04:28.395Z,15.33
2017-09-05T04:06:55.882Z,15.28
2017-09-05T04:09:23.338Z,15.17
2017-09-05T04:11:50.789Z,15.05
2017-09-05T04:14:18.269Z,14.88
2017-09-05T04:16:45.806Z,14.66
2017-09-05T04:19:13.291Z,14.78
2017-09-05T04:21:40.747Z,14.85
2017-09-05T04:24:08.309Z,14.87
2017-09-05T04:26:35.775Z,14.95
2017-09-05T04:29:03.253Z,14.85
2017-09-05T04:31:30.690Z,14.87
2017-09-05T04:33:58.161Z,14.83
2017-09-05T04:36:25.598Z,14.73
2017-09-05T04:38:53.135Z,14.83
2017-09-05T04:41:20.738Z,14.72
2017-09-05T04:43:48.251Z,14.72
2017-09-05T04:46:15.812Z,14.68
2017-09-05T04:48:43.353Z,14.61
2017-09-05T04:51:10.823Z,14.53
2017-09-05T04:53:38.264Z,14.55
2017-09-05T04:56:05.738Z,14.47
2017-09-05T04:58:33.181Z,14.47
2017-09-05T05:01:00.648Z,14.33
2017-09-05T05:03:28.090Z,14.20
2017-09-05T05:05:55.851Z,14.23
2017-09-05T05:08:23.314Z,14.48
2017-09-05T05:10:50.797Z,14.34
2017-09-05T05:13:18.274Z,14.35
2017-09-05T05:15:45.737Z,14.32
2017-09-05T05:18:13.182Z,14.13
2017-09-05T05:20:40.661Z,14.36
2017-09-05T05:23:08.100Z,14.63
2017-09-05T05:25:35.609Z,14.65
2017-09-05T05:28:03.053Z,14.69
2017-09-05T05:30:30.535Z,14.76
2017-09-05T05:32:57.991Z,15.02
2017-09-05T05:35:25.548Z,15.27
2017-09-05T05:37:53.213Z,15.13
2017-09-05T05:40:20.757Z,14.97
2017-09-05T05:42:48.194Z,15.05
2017-09-05T05:45:15.682Z,15.05
2017-09-05T05:47:43.148Z,15.03
2017-09-05T05:50:10.615Z,15.19
2017-09-05T05:52:38.067Z,15.24
2017-09-05T05:55:05.519Z,15.24
2017-09-05T05:57:32.985Z,15.51
2017-09-05T06:00:00.433Z,15.42
2017-09-05T06:02:27.899Z,15.56
2017-09-05T06:04:55.426Z,15.76
2017-09-05T06:07:22.904Z,15.74
2017-09-05T06:09:50.358Z,15.84
2017-09-05T06:12:17.902Z,15.89
2017-09-05T06:14:45.459Z,15.80
2017-09-05T06:17:12.939Z,15.83
2017-09-05T06:19:40.395Z,15.93
2017-09-05T06:22:07.951Z,16.03
2017-09-05T06:24:35.405Z,15.99
2017-09-05T06:27:02.949Z,16.08
2017-09-05T06:29:30.413Z,16.15
2017-09-05T06:31:57.877Z,16.29
2017-09-05T06:34:25.339Z,16.29
2017-09-05T06:36:52.809Z,16.40
2017-09-05T06:39:20.253Z,16.56
2017-09-05T06:41:47.726Z,16.74
2017-09-05T06:44:15.252Z,16.80
2017-09-05T06:46:42.793Z,16.96
2017-09-05T06:49:10.258Z,17.16
2017-09-05T06:51:37.775Z,17.08
2017-09-05T06:54:05.227Z,17.13
2017-09-05T06:56:32.664Z,17.29
2017-09-05T06:59:00.199Z,17.12
2017-09-05T07:01:27.754Z,17.12
2017-09-05T07:03:55.309Z,17.17
2017-09-05T07:06:22.805Z,17.18
2017-09-05T07:08:50.330Z,17.45
2017-09-05T07:11:17.793Z,17.63
2017-09-05T07:13:45.344Z,17.81
2017-09-05T07:16:12.809Z,17.93
2017-09-05T07:18:40.308Z,17.90
2017-09-05T07:21:07.778Z,17.87
2017-09-05T07:23:35.261Z,17.85
2017-09-05T07:26:02.715Z,18.31
2017-09-05T07:28:30.233Z,18.32
2017-09-05T07:30:57.685Z,18.11
2017-09-05T07:33:25.173Z,18.39
2017-09-05T07:35:52.653Z,18.09
2017-09-05T07:38:20.121Z,18.00
2017-09-05T07:40:47.601Z,18.11
2017-09-05T07:43:15.148Z,18.11
2017-09-05T07:45:42.673Z,18.27
2017-09-05T07:48:10.230Z,18.35
2017-09-05T07:50:37.698Z,18.73
2017-09-05T07:53:05.182Z,18.77
2017-09-05T07:55:32.638Z,19.06
2017-09-05T07:58:00.231Z,19.00
2017-09-05T08:00:27.728Z,19.19
2017-09-05T08:02:55.302Z,18.53
2017-09-05T08:05:22.768Z,18.45
2017-09-05T08:07:50.213Z,18.62
2017-09-05T08:10:18.099Z,18.76
2017-09-05T08:12:45.629Z,18.48
2017-09-05T08:15:13.124Z,18.59
2017-09-05T08:17:40.573Z,19.25
2017-09-05T08:20:08.132Z,19.12
2017-09-05T08:22:35.604Z,19.31
2017-09-05T08:25:03.112Z,19.19
2017-09-05T08:27:30.677Z,19.50
2017-09-05T08:29:58.221Z,19.55
2017-09-05T08:32:25.663Z,19.27
2017-09-05T08:34:53.129Z,19.56
2017-09-05T08:37:20.583Z,19.88
2017-09-05T08:39:48.164Z,19.71
2017-09-05T08:42:15.722Z,19.41
2017-09-05T08:44:43.284Z,19.56
2017-09-05T08:47:10.727Z,19.74
2017-09-05T08:49:38.281Z,19.71
2017-09-05T08:52:05.737Z,20.24
2017-09-05T08:54:33.193Z,20.26
2017-09-05T08:57:00.717Z,20.61
2017-09-05T08:59:28.189Z,20.30
2017-09-05T09:01:55.716Z,20.31
2017-09-05T09:04:23.166Z,20.62
2017-09-05T09:06:50.736Z,20.64
2017-09-05T09:09:18.233Z,20.60
2017-09-05T09:11:45.697Z,20.93
2017-09-05T09:14:13.168Z,20.87
2017-09-05T09:16:40.665Z,20.56
2017-09-05T09:19:08.127Z,20.82
2017-09-05T09:21:35.593Z,21.02
2017-09-05T09:24:03.047Z,21.55
2017-09-05T09:26:30.528Z,21.14
2017-09-05T09:28:57.997Z,21.18
2017-09-05T09:31:25.459Z,21.21
2017-09-05T09:33:53.020Z,21.44
2017-09-05T09:36:20.610Z,21.38
2017-09-05T09:38:48.129Z,21.36
2017-09-05T09:41:15.585Z,21.37
2017-09-05T09:43:43.062Z,21.63
2017-09-05T09:46:10.593Z,21.62
2017-09-05T09:48:38.038Z,21.59
2017-09-05T09:51:05.499Z,22.26
2017-09-05T09:53:32.983Z,22.02
2017-09-05T09:56:00.430Z,22.36
2017-09-05T09:58:27.928Z,22.21
2017-09-05T10:00:55.434Z,22.26
2017-09-05T10:03:23.017Z,21.82
2017-09-05T10:05:50.571Z,22.14
2017-09-05T10:08:18.131Z,22.08
2017-09-05T10:10:45.669Z,22.41
2017-09-05T10:13:13.230Z,22.87
2017-09-05T10:15:40.662Z,22.85
2017-09-05T10:18:08.131Z,23.00
2017-09-05T10:20:35.626Z,23.13
2017-09-05T10:23:03.127Z,23.59
2017-09-05T10:25:30.684Z,23.16
2017-09-05T10:27:58.167Z,23.35
2017-09-05T10:30:25.629Z,23.70
2017-09-05T10:32:53.208Z,23.47
2017-09-05T10:35:20.672Z,23.47
2017-09-05T10:37:48.169Z,23.27
2017-09-05T10:40:15.651Z,23.22
2017-09-05T10:42:43.102Z,22.70
2017-09-05T10:45:10.551Z,23.45
2017-09-05T10:47:38.005Z,23.92
2017-09-05T10:50:05.535Z,23.54
2017-09-05T10:52:32.995Z,23.44
2017-09-05T10:55:00.476Z,23.52
2017-09-05T10:57:27.923Z,23.41
2017-09-05T10:59:55.419Z,23.34
2017-09-05T11:02:22.917Z,23.67
2017-09-05T11:04:50.395Z,23.81
2017-09-05T11:07:17.876Z,23.89
2017-09-05T11:09:45.352Z,23.99
2017-09-05T11:12:12.806Z,24.05
2017-09-05T11:14:40.267Z,23.91
2017-09-05T11:17:07.728Z,24.23
2017-09-05T11:19:35.335Z,23.99
2017-09-05T11:22:02.774Z,24.39
2017-09-05T11:24:30.282Z,24.40
2017-09-05T11:26:57.752Z,24.68
2017-09-05T11:29:25.302Z,24.40
2017-09-05T11:31:53.338Z,24.33
2017-09-05T11:34:20.804Z,24.33
2017-09-05T11:36:48.275Z,23.77
2017-09-05T11:39:15.806Z,23.91
2017-09-05T11:41:43.237Z,23.78
2017-09-05T11:44:10.787Z,24.16
2017-09-05T11:46:38.333Z,24.26
2017-09-05T11:49:05.791Z,24.83
2017-09-05T11:51:33.333Z,24.66
2017-09-05T11:54:00.922Z,24.67
2017-09-05T11:56:28.468Z,24.59
2017-09-05T11:58:56.011Z,25.00
2017-09-05T12:01:23.489Z,25.02
2017-09-05T12:03:50.940Z,24.95
2017-09-05T12:06:18.405Z,25.16
2017-09-05T12:08:45.866Z,25.30
2017-09-05T12:11:13.347Z,25.66
2017-09-05T12:13:41.973Z,25.91
2017-09-05T12:16:09.436Z,24.72
2017-09-05T12:18:36.893Z,24.97
2017-09-05T12:21:04.381Z,25.11
2017-09-05T12:23:31.841Z,25.36
2017-09-05T12:25:59.302Z,25.74
2017-09-05T12:28:26.777Z,26.04
2017-09-05T12:30:54.289Z,25.98
2017-09-05T12:33:21.755Z,25.99
2017-09-05T12:35:49.253Z,25.95
2017-09-05T12:38:16.752Z,26.03
2017-09-05T12:40:44.211Z,25.80
2017-09-05T12:43:11.657Z,25.66
2017-09-05T12:45:39.118Z,25.67
2017-09-05T12:48:06.564Z,25.67
2017-09-05T12:50:34.125Z,25.76
2017-09-05T12:53:01.589Z,25.74
2017-09-05T12:55:29.045Z,25.75
2017-09-05T12:57:56.516Z,25.48
2017-09-05T13:00:24.056Z,25.82
2017-09-05T13:02:51.534Z,25.54
2017-09-05T13:05:18.981Z,25.84
2017-09-05T13:07:46.477Z,25.70
2017-09-05T13:10:14.052Z,25.42
2017-09-05T13:12:41.509Z,25.34
2017-09-05T13:15:09.019Z,25.22
2017-09-05T13:17:36.532Z,25.34
2017-09-05T13:20:03.966Z,25.21
2017-09-05T13:22:31.478Z,25.33
2017-09-05T13:24:58.948Z,25.39
2017-09-05T13:27:26.517Z,25.46
2017-09-05T13:29:54.057Z,25.29
2017-09-05T13:32:21.626Z,25.34
2017-09-05T13:34:49.065Z,25.31
2017-09-05T13:37:16.513Z,25.40
2017-09-05T13:39:43.987Z,25.28
2017-09-05T13:42:11.545Z,25.38
2017-09-05T13:44:39.014Z,25.18
2017-09-05T13:47:06.485Z,25.36
2017-09-05T13:49:33.931Z,25.39
2017-09-05T13:52:01.461Z,25.65
2017-09-05T13:54:28.898Z,25.29
2017-09-05T13:56:56.368Z,25.11
2017-09-05T13:59:23.846Z,25.12
2017-09-05T14:01:51.290Z,25.15
2017-09-05T14:04:18.852Z,24.91
2017-09-05T14:06:46.306Z,25.04
2017-09-05T14:09:13.793Z,25.14
2017-09-05T14:11:41.230Z,25.10
2017-09-05T14:14:08.777Z,25.16
2017-09-05T14:16:36.258Z,25.40
2017-09-05T14:19:03.730Z,25.48
2017-09-05T14:21:31.161Z,25.68
2017-09-05T14:23:58.630Z,25.87
2017-09-05T14:26:26.061Z,25.89
2017-09-05T14:28:53.569Z,25.81
2017-09-05T14:31:21.078Z,25.90
2017-09-05T14:33:48.544Z,25.94
2017-09-05T14:36:16.002Z,25.91
2017-09-05T14:38:43.479Z,25.94
2017-09-05T14:41:10.919Z,26.07
2017-09-05T14:43:38.410Z,26.00
2017-09-05T14:46:05.909Z,25.86
2017-09-05T14:48:33.473Z,26.11
2017-09-05T14:51:00.927Z,26.47
2017-09-05T14:53:28.403Z,26.91
2017-09-05T14:55:55.848Z,27.19
2017-09-05T14:58:23.602Z,26.88
2017-09-05T15:00:51.099Z,26.87
2017-09-05T15:03:18.644Z,26.79
2017-09-05T15:05:46.166Z,26.82
2017-09-05T15:08:13.673Z,26.92
2017-09-05T15:10:41.134Z,26.78
2017-09-05T15:13:08.674Z,26.69
2017-09-05T15:15:36.145Z,26.35
2017-09-05T15:18:03.593Z,26.33
2017-09-05T15:20:31.077Z,26.08
2017-09-05T15:22:58.566Z,25.96
2017-09-05T15:25:26.056Z,25.88
2017-09-05T15:27:53.560Z,25.78
2017-09-05T15:30:21.050Z,25.88
2017-09-05T15:32:48.505Z,25.79
2017-09-05T15:35:16.056Z,25.70
2017-09-05T15:37:43.536Z,25.59
2017-09-05T15:40:11.484Z,25.64
2017-09-05T15:42:39.062Z,25.64
2017-09-05T15:45:06.520Z,25.42
2017-09-05T15:47:33.971Z,25.46
2017-09-05T15:50:01.455Z,25.45
2017-09-05T15:52:28.999Z,25.37
2017-09-05T15:54:56.500Z,25.29
2017-09-05T15:57:23.964Z,25.24
2017-09-05T15:59:51.432Z,25.26
2017-09-05T16:02:18.905Z,25.02
2017-09-05T16:04:46.476Z,25.17
2017-09-05T16:07:13.965Z,25.13
2017-09-05T16:09:41.431Z,25.01
2017-09-05T16:12:08.885Z,25.13
2017-09-05T16:14:36.398Z,25.12
2017-09-05T16:17:03.895Z,25.06
2017-09-05T16:19:31.417Z,25.04
2017-09-05T16:21:58.873Z,24.96
2017-09-05T16:24:26.329Z,25.04
2017-09-05T16:26:53.811Z,25.06
2017-09-05T16:29:21.985Z,25.17
2017-09-05T16:31:49.496Z,25.12
2017-09-05T16:34:16.968Z,25.10
2017-09-05T16:36:44.522Z,24.93
2017-09-05T16:39:12.048Z,24.91
2017-09-05T16:41:39.510Z,25.12
2017-09-05T16:44:07.228Z,24.95
2017-09-05T16:46:34.826Z,24.95
2017-09-05T16:49:02.282Z,25.06
2017-09-05T16:51:29.768Z,24.98
2017-09-05T16:53:57.211Z,24.99
2017-09-05T16:56:24.967Z,24.86
2017-09-05T16:58:54.415Z,24.89
2017-09-05T17:01:21.923Z,24.89
2017-09-05T17:03:49.375Z,24.82
2017-09-05T17:06:16.841Z,24.73
2017-09-05T17:08:44.313Z,24.89
2017-09-05T17:11:11.795Z,24.77
2017-09-05T17:13:39.314Z,24.69
2017-09-05T17:16:06.775Z,24.55
2017-09-05T17:18:34.262Z,24.62
2017-09-05T17:21:01.705Z,24.64
2017-09-05T17:23:29.162Z,24.56
2017-09-05T17:25:56.599Z,24.55
2017-09-05T17:28:24.076Z,24.68
2017-09-05T17:30:51.548Z,24.69
2017-09-05T17:33:19.017Z,24.63
2017-09-05T17:35:46.496Z,24.44
2017-09-05T17:38:14.005Z,24.38
2017-09-05T17:40:41.452Z,24.36
2017-09-05T17:43:08.963Z,24.30
2017-09-05T17:45:36.434Z,24.28
2017-09-05T17:48:03.889Z,24.20
2017-09-05T17:50:31.402Z,24.12
2017-09-05T17:52:58.917Z,24.14
2017-09-05T17:55:26.403Z,24.08
2017-09-05T17:57:53.901Z,24.01
2017-09-05T18:00:21.365Z,24.06
2017-09-05T18:02:48.843Z,23.99
2017-09-05T18:05:16.299Z,23.88
2017-09-05T18:07:44.027Z,23.73
2017-09-05T18:10:11.475Z,23.53
2017-09-05T18:12:39.921Z,23.43
2017-09-05T18:15:07.353Z,23.22
2017-09-05T18:17:34.845Z,23.01
2017-09-05T18:20:02.297Z,23.06
2017-09-05T18:22:29.738Z,23.04
2017-09-05T18:24:57.189Z,23.12
2017-09-05T18:27:24.630Z,23.05
2017-09-05T18:29:53.038Z,23.05
2017-09-05T18:32:20.499Z,22.88
2017-09-05T18:34:47.959Z,22.93
2017-09-05T18:37:15.431Z,22.83
2017-09-05T18:39:42.973Z,22.82
2017-09-05T18:42:10.447Z,22.88
2017-09-05T18:44:37.941Z,22.48
2017-09-05T18:47:05.652Z,22.49
2017-09-05T18:49:33.105Z,22.36
2017-09-05T18:52:00.590Z,22.32
2017-09-05T18:54:28.091Z,22.38
2017-09-05T18:56:55.591Z,22.51
2017-09-05T18:59:23.144Z,22.55
2017-09-05T19:01:50.597Z,22.63
2017-09-05T19:04:18.062Z,22.63
2017-09-05T19:06:45.516Z,22.56
2017-09-05T19:09:12.976Z,22.51
2017-09-05T19:11:40.495Z,22.50
2017-09-05T19:14:08.636Z,22.57
2017-09-05T19:16:36.183Z,22.61
2017-09-05T19:19:03.787Z,22.52
2017-09-05T19:21:31.269Z,22.52
2017-09-05T19:23:58.793Z,22.43
2017-09-05T19:26:26.240Z,22.32
2017-09-05T19:28:53.707Z,22.18
2017-09-05T19:31:21.304Z,22.14
2017-09-05T19:33:48.799Z,21.99
2017-09-05T19:36:16.318Z,21.83
2017-09-05T19:38:43.765Z,21.56
2017-09-05T19:41:11.298Z,21.52
2017-09-05T19:43:38.765Z,21.29
2017-09-05T19:46:06.246Z,21.29
2017-09-05T19:48:33.703Z,21.13
2017-09-05T19:51:01.162Z,21.05
2017-09-05T19:53:29.239Z,20.89
2017-09-05T19:55:56.795Z,20.97
2017-09-05T19:58:24.232Z,20.78
2017-09-05T20:00:51.690Z,20.84
2017-09-05T20:03:19.138Z,20.74
2017-09-05T20:05:47.008Z,20.59
2017-09-05T20:08:14.497Z,20.50
2017-09-05T20:10:41.950Z,20.50
2017-09-05T20:13:09.505Z,20.47
2017-09-05T20:15:36.987Z,20.51
2017-09-05T20:18:04.453Z,20.38
2017-09-05T20:20:31.918Z,20.40
2017-09-05T20:22:59.438Z,20.38
2017-09-05T20:25:26.992Z,20.22
2017-09-05T20:27:54.537Z,19.96
2017-09-05T20:30:22.301Z,19.73
2017-09-05T20:32:49.738Z,19.82
2017-09-05T20:35:17.216Z,19.80
2017-09-05T20:37:44.672Z,19.74
2017-09-05T20:40:12.229Z,19.82
2017-09-05T20:42:39.694Z,19.75
2017-09-05T20:45:07.168Z,19.80
2017-09-05T20:47:34.606Z,19.68
2017-09-05T20:50:02.173Z,19.70
2017-09-05T20:52:29.609Z,19.70
2017-09-05T20:54:57.244Z,19.35
2017-09-05T20:57:24.729Z,19.36
2017-09-05T20:59:52.204Z,19.29
2017-09-05T21:02:19.722Z,19.41
2017-09-05T21:04:47.209Z,19.32
2017-09-05T21:07:14.665Z,19.34
2017-09-05T21:09:42.101Z,19.34
2017-09-05T21:12:09.574Z,19.31
2017-09-05T21:14:37.010Z,19.34
2017-09-05T21:17:04.489Z,19.33
2017-09-05T21:19:31.926Z,19.41
2017-09-05T21:21:59.556Z,19.33
2017-09-05T21:24:26.987Z,19.32
2017-09-05T21:26:54.449Z,19.31
2017-09-05T21:29:21.978Z,19.39
2017-09-05T21:31:49.583Z,19.28
2017-09-05T21:34:17.294Z,19.31
2017-09-05T21:36:44.758Z,19.34
2017-09-05T21:39:12.208Z,19.40
2017-09-05T21:41:39.665Z,19.39
2017-09-05T21:44:07.137Z,19.33
2017-09-05T21:46:34.705Z,19.52
2017-09-05T21:49:02.262Z,19.48
2017-09-05T21:51:29.814Z,19.54
2017-09-05T21:53:57.246Z,19.47
2017-09-05T21:56:24.728Z,19.55
2017-09-05T21:58:52.236Z,19.63
2017-09-05T22:01:19.869Z,19.57
2017-09-05T22:03:47.329Z,19.45
2017-09-05T22:06:14.781Z,19.53
2017-09-05T22:11:21.246Z,19.65
2017-09-05T22:13:54.391Z,19.63
2017-09-05T22:16:27.545Z,19.75
2017-09-05T22:19:00.595Z,19.62
2017-09-05T22:21:28.064Z,19.60
2017-09-05T22:23:55.497Z,19.59
2017-09-05T22:26:28.695Z,19.70
2017-09-05T22:29:01.854Z,19.64
2017-09-05T22:31:29.317Z,19.66
2017-09-05T22:33:56.806Z,19.67
2017-09-05T22:36:24.268Z,19.75
2017-09-05T22:38:51.729Z,19.74
2017-09-05T22:41:19.285Z,19.67
2017-09-05T22:43:46.829Z,19.71
2017-09-05T22:46:14.293Z,19.53
2017-09-05T22:48:41.746Z,19.74
2017-09-05T22:51:09.211Z,19.66
2017-09-05T22:53:36.798Z,19.68
2017-09-05T22:56:04.230Z,19.75
2017-09-05T22:58:31.707Z,19.67
2017-09-05T23:00:59.231Z,19.76
2017-09-05T23:03:26.702Z,19.64
2017-09-05T23:05:54.269Z,19.62
2017-09-05T23:08:21.722Z,19.63
2017-09-05T23:10:49.159Z,19.58
2017-09-05T23:13:16.632Z,19.39
2017-09-05T23:15:44.190Z,19.40
2017-09-05T23:18:12.966Z,19.32
2017-09-05T23:20:40.420Z,19.46
2017-09-05T23:23:07.943Z,19.39
2017-09-05T23:25:35.409Z,19.40
2017-09-05T23:28:03.508Z,19.50
2017-09-05T23:30:31.006Z,19.60
2017-09-05T23:32:58.530Z,19.64
2017-09-05T23:35:25.974Z,19.69
2017-09-05T23:37:53.429Z,19.63
2017-09-05T23:40:20.866Z,19.70
2017-09-05T23:42:48.370Z,19.58
2017-09-05T23:45:15.839Z,19.63
2017-09-05T23:47:43.304Z,19.62
2017-09-05T23:50:10.749Z,19.86
2017-09-05T23:52:38.302Z,19.93
2017-09-05T23:55:05.834Z,19.99
2017-09-05T23:57:33.286Z,19.89
